Home > Products > Valid Products > TAF

000
FTUS42 KFFC 181025 AAA
TAFMCN
TAF AMD
KMCN 181025Z 1810/1906 30004KT P6SM FEW250
      TEMPO 1810/1813 5SM BR
     FM181400 29003KT P6SM SCT150 BKN250
     FM181900 30005KT P6SM BKN060
     FM190100 31004KT P6SM SCT080 BKN150=



000
FTUS42 KFFC 180938 AAD
TAFATL
TAF AMD
KATL 180938Z 1810/1912 31006KT P6SM SCT150 BKN250
     FM181500 34006KT P6SM BKN060
     FM190100 31005KT P6SM SCT080 BKN150
     FM190900 31006KT P6SM SCT150=



000
FTUS42 KFFC 180745 AAC
TAFATL
TAF AMD
KATL 180745Z 1808/1912 32008KT P6SM BKN250
     FM180800 31005KT P6SM SCT150 BKN250
     FM181500 34006KT P6SM BKN060
     FM190100 31005KT P6SM SCT080 BKN150
     FM190900 31006KT P6SM SCT150=



000
FTUS42 KFFC 180745 AAC
TAFATL
TAF AMD
KATL 180745Z 1808/1912 32008KT P6SM BKN250
     FM180800 31005KT P6SM SCT150 BKN250
     FM181500 34006KT P6SM BKN060
     FM190100 31005KT P6SM SCT080 BKN150
     FM190900 31006KT P6SM SCT150=



000
FTUS42 KFFC 180605 RRA
TAFRYY
TAF
KRYY 180605Z 1806/1906 31003KT P6SM BKN250
     FM180800 31003KT P6SM SCT150 BKN250
     FM181500 32005KT P6SM BKN060
     FM190100 31003KT P6SM SCT080 BKN150
      AMD NOT SKED TIL 181200=



000
FTUS42 KFFC 180605 RRA
TAFPDK
TAF
KPDK 180605Z 1806/1906 30005KT P6SM FEW250
     FM180800 31003KT P6SM SCT150 BKN250
     FM181500 34005KT P6SM BKN060
     FM190100 31003KT P6SM SCT080 BKN150=



000
FTUS42 KFFC 180605 RRA
TAFATL
TAF
KATL 180605Z 1806/1912 30006KT P6SM BKN250
     FM180800 31005KT P6SM SCT150 BKN250
     FM181500 34006KT P6SM BKN060
     FM190100 31005KT P6SM SCT080 BKN150
     FM190900 31006KT P6SM SCT150=



000
FTUS42 KFFC 180605 RRA
TAFFTY
TAF
KFTY 180605Z 1806/1906 31003KT P6SM BKN250
     FM180800 31003KT P6SM SCT150 BKN250
     FM181500 34004KT P6SM BKN060
     FM190100 31003KT P6SM SCT080 BKN150=



000
FTUS42 KFFC 180605 RRA
TAFCSG
TAF
KCSG 180605Z 1806/1906 34003KT P6SM BKN250
     FM181100 32003KT P6SM SCT150 BKN250
     FM181800 31005KT P6SM BKN060
     FM190100 34005KT P6SM SCT080 BKN150=



000
FTUS42 KFFC 180605 RRA
TAFAHN
TAF
KAHN 180605Z 1806/1906 29004KT P6SM SCT250
     FM180900 00000KT P6SM SCT150 BKN250
     FM181600 32004KT P6SM BKN060
     FM190100 31003KT P6SM SCT080 BKN150=



000
FTUS42 KFFC 180605 RRA
TAFMCN
TAF
KMCN 180605Z 1806/1906 30004KT P6SM FEW250
     FM181200 29003KT P6SM SCT150 BKN250
     FM181900 30005KT P6SM BKN060
     FM190100 31004KT P6SM SCT080 BKN150=



000
FTUS42 KFFC 180340 AAB
TAFATL
TAF AMD
KATL 180340Z 1804/1906 30006KT P6SM BKN250
     FM180800 31005KT P6SM SCT150 BKN250
     FM181500 34006KT P6SM BKN060
     FM190100 31005KT P6SM SCT080 BKN150=



000
FTUS42 KFFC 180145 AAA
TAFFTY
TAF AMD
KFTY 180145Z 1802/1824 29003KT P6SM BKN250
     FM180800 31003KT P6SM SCT150 BKN250
     FM181500 34004KT P6SM BKN060=



000
FTUS42 KFFC 180145 AAA
TAFRYY
TAF AMD
KRYY 180145Z 1802/1824 31006KT P6SM SCT030 BKN250
     FM180200 31003KT P6SM BKN250
     FM180800 31003KT P6SM SCT150 BKN250
     FM181500 32005KT P6SM BKN060
      AMD NOT SKED 1804/1812=



000
FTUS42 KFFC 180145 AAA
TAFATL
TAF AMD
KATL 180145Z 1802/1906 30007KT P6SM BKN250
     FM180800 31005KT P6SM SCT150 BKN250
     FM181500 34006KT P6SM BKN060
     FM190100 31005KT P6SM SCT080 BKN150=



000
FTUS42 KFFC 180145 AAA
TAFATL
TAF AMD
KATL 180145Z 1802/1906 30007KT P6SM BKN250
     FM180800 31005KT P6SM SCT150 BKN250
     FM181500 34006KT P6SM BKN060
     FM190100 31005KT P6SM SCT080 BKN150=



000
FTUS42 KFFC 180145 AAA
TAFRYY
TAF AMD
KRYY 180145Z 1802/1824 31006KT P6SM SCT030 BKN250
     FM180200 31003KT P6SM BKN250
     FM180800 31003KT P6SM SCT150 BKN250
     FM181500 32005KT P6SM BKN060
      AMD NOT SKED 1804/1812=



000
FTUS42 KFFC 180145 AAA
TAFFTY
TAF AMD
KFTY 180145Z 1802/1824 29003KT P6SM BKN250
     FM180800 31003KT P6SM SCT150 BKN250
     FM181500 34004KT P6SM BKN060=



000
FTUS42 KFFC 172320
TAFATL
TAF
KATL 172320Z 1800/1906 31007KT P6SM BKN250
     FM180800 31005KT P6SM SCT150 BKN250
     FM181500 34006KT P6SM BKN060
     FM190100 31005KT P6SM SCT080 BKN150=



000
FTUS42 KFFC 172320
TAFCSG
TAF
KCSG 172320Z 1800/1824 34003KT P6SM BKN250
     FM181100 32003KT P6SM SCT150 BKN250
     FM181800 31005KT P6SM BKN060=



000
FTUS42 KFFC 172320
TAFFTY
TAF
KFTY 172320Z 1800/1824 30004KT P6SM FEW020 BKN250
     FM180300 31003KT P6SM BKN250
     FM180800 31003KT P6SM SCT150 BKN250
     FM181500 34004KT P6SM BKN060=



000
FTUS42 KFFC 172320
TAFMCN
TAF
KMCN 172320Z 1800/1824 30004KT P6SM BKN250
     FM181200 29003KT P6SM SCT150 BKN250
     FM181900 30005KT P6SM BKN060=



000
FTUS42 KFFC 172320
TAFRYY
TAF
KRYY 172320Z 1800/1824 31006KT P6SM SCT030 BKN250
     FM180200 31003KT P6SM BKN250
     FM180800 31003KT P6SM SCT150 BKN250
     FM181500 32005KT P6SM BKN060=



000
FTUS42 KFFC 172320
TAFAHN
TAF
KAHN 172320Z 1800/1824 29004KT P6SM BKN250
     FM180900 00000KT P6SM SCT150 BKN250
     FM181600 32004KT P6SM BKN060=



000
FTUS42 KFFC 172320
TAFPDK
TAF
KPDK 172320Z 1800/1824 30005KT P6SM BKN250
     FM180800 31003KT P6SM SCT150 BKN250
     FM181500 34005KT P6SM BKN060=



000
FTUS42 KFFC 172158 AAB
TAFFTY
TAF AMD
KFTY 172158Z 1722/1818 31007KT P6SM BKN018
     FM180000 31005KT P6SM SCT020
     FM180300 31003KT P6SM SCT250
     FM180800 31003KT P6SM SCT180
     FM181500 32004KT P6SM BKN060=



000
FTUS42 KFFC 172158 AAB
TAFRYY
TAF AMD
KRYY 172158Z 1722/1818 34008KT P6SM SCT020
     FM180200 31003KT P6SM SCT250
     FM180800 31003KT P6SM SCT180
     FM181500 32004KT P6SM BKN060=



000
FTUS42 KFFC 172158 AAB
TAFATL
TAF AMD
KATL 172158Z 1722/1824 30010KT P6SM FEW020 BKN250
     FM180000 31007KT P6SM SCT250
     FM180800 31006KT P6SM SCT180
     FM181500 32005KT P6SM BKN060=



000
FTUS42 KFFC 172158 AAB
TAFFTY
TAF AMD
KFTY 172158Z 1722/1818 31007KT P6SM BKN018
     FM180000 31005KT P6SM SCT020
     FM180300 31003KT P6SM SCT250
     FM180800 31003KT P6SM SCT180
     FM181500 32004KT P6SM BKN060=



000
FTUS42 KFFC 172158 AAB
TAFATL
TAF AMD
KATL 172158Z 1722/1824 30010KT P6SM FEW020 BKN250
     FM180000 31007KT P6SM SCT250
     FM180800 31006KT P6SM SCT180
     FM181500 32005KT P6SM BKN060=



000
FTUS42 KFFC 172158 AAB
TAFRYY
TAF AMD
KRYY 172158Z 1722/1818 34008KT P6SM SCT020
     FM180200 31003KT P6SM SCT250
     FM180800 31003KT P6SM SCT180
     FM181500 32004KT P6SM BKN060=



000
FTUS42 KFFC 171954 AAA
TAFATL
TAF AMD
KATL 171954Z 1720/1824 31011KT P6SM FEW015
     FM180000 31007KT P6SM SCT250
     FM180800 31006KT P6SM SCT180
     FM181500 32005KT P6SM BKN060=



000
FTUS42 KFFC 171911 AAA
TAFFTY
TAF AMD
KFTY 171911Z 1719/1818 31010KT P6SM BKN018
     FM172000 31009KT P6SM SCT020
     FM172100 31009KT P6SM FEW250
     FM180000 31003KT P6SM SCT250
     FM180800 31003KT P6SM SCT180
     FM181500 32004KT P6SM BKN060=



000
FTUS42 KFFC 171911 AAA
TAFRYY
TAF AMD
KRYY 171911Z 1719/1818 32009KT P6SM BKN015
     FM172100 31010KT P6SM SCT025
     FM180000 31003KT P6SM SCT250
     FM180800 31003KT P6SM SCT180
     FM181500 32004KT P6SM BKN060=



000
FTUS42 KFFC 171743
TAFCSG
TAF
KCSG 171743Z 1718/1818 34006KT P6SM FEW250
     FM180000 00000KT P6SM SCT250
     FM181000 00000KT P6SM SCT200
     FM181600 31003KT P6SM SCT070=



000
FTUS42 KFFC 171743
TAFAHN
TAF
KAHN 171743Z 1718/1818 29007KT P6SM FEW250
     FM180000 29003KT P6SM SCT250
     FM180800 31003KT P6SM SCT180
     FM181500 32004KT P6SM BKN060=



000
FTUS42 KFFC 171743
TAFRYY
TAF
KRYY 171743Z 1718/1818 32009KT P6SM BKN015
     FM171900 31010KT P6SM SCT025
     FM172100 31009KT P6SM FEW250
     FM180000 31003KT P6SM SCT250
     FM180800 31003KT P6SM SCT180
     FM181500 32004KT P6SM BKN060=



000
FTUS42 KFFC 171743
TAFATL
TAF
KATL 171743Z 1718/1824 31011KT P6SM FEW250
     FM180000 31007KT P6SM SCT250
     FM180800 31006KT P6SM SCT180
     FM181500 32005KT P6SM BKN060=



000
FTUS42 KFFC 171743
TAFMCN
TAF
KMCN 171743Z 1718/1818 29007KT P6SM FEW250
     FM180000 00000KT P6SM SCT250
     FM181000 00000KT P6SM SCT200
     FM181600 30003KT P6SM SCT070=



000
FTUS42 KFFC 171743
TAFFTY
TAF
KFTY 171743Z 1718/1818 31010KT P6SM SCT025
     FM171900 31009KT P6SM FEW250
     FM180000 31003KT P6SM SCT250
     FM180800 31003KT P6SM SCT180
     FM181500 32004KT P6SM BKN060=



000
FTUS42 KFFC 171743
TAFPDK
TAF
KPDK 171743Z 1718/1818 31009KT P6SM SKC
     FM180000 31007KT P6SM SCT250
     FM180800 31003KT P6SM SCT180
     FM181500 32004KT P6SM BKN060=



000
FTUS42 KFFC 171613 AAB
TAFFTY
TAF AMD
KFTY 171613Z 1716/1812 31009KT P6SM BKN015
     FM171700 31010KT P6SM SCT025
     FM171900 31009KT P6SM FEW250
     FM180000 31003KT P6SM SCT250=



000
FTUS42 KFFC 171613 AAC
TAFRYY
TAF AMD
KRYY 171613Z 1716/1812 32009KT P6SM BKN015
     FM171800 31010KT P6SM SCT025
     FM172000 31009KT P6SM FEW250
     FM180100 31003KT P6SM SCT250=



000
FTUS42 KFFC 171601 AAC
TAFATL
TAF AMD
KATL 171601Z 1716/1818 31011KT P6SM FEW015
     FM171800 31011KT P6SM FEW250
     FM180000 31007KT P6SM SCT250
     FM181400 33006KT P6SM BKN080=



000
FTUS42 KFFC 171601 AAC
TAFATL
TAF AMD
KATL 171601Z 1716/1818 31011KT P6SM FEW015
     FM171800 31011KT P6SM FEW250
     FM180000 31007KT P6SM SCT250
     FM181400 33006KT P6SM BKN080=



000
FTUS42 KFFC 171424 AAA
TAFFTY
TAF AMD
KFTY 171424Z 1714/1812 31006KT P6SM BKN015
     FM171600 31009KT P6SM SCT025
     FM171800 31009KT P6SM FEW250
     FM180000 31003KT P6SM SCT250=



000
FTUS42 KFFC 171422 AAB
TAFRYY
TAF AMD
KRYY 171422Z 1714/1812 32006KT P6SM BKN015
     FM171600 31009KT P6SM SCT025
     FM171800 31009KT P6SM FEW250
     FM180100 31003KT P6SM SCT250=



000
FTUS42 KFFC 171419 AAB
TAFATL
TAF AMD
KATL 171419Z 1714/1818 31009KT P6SM SCT015
     FM171600 31011KT P6SM SKC
     FM180000 31007KT P6SM SCT250
     FM181400 33006KT P6SM BKN080=



000
FTUS42 KFFC 171357 AAA
TAFATL
TAF AMD
KATL 171357Z 1714/1818 30007KT P6SM SKC
     FM171400 31011KT P6SM SKC
     FM180000 31007KT P6SM SCT250
     FM181400 33006KT P6SM BKN080=



000
FTUS42 KFFC 171153 AAA
TAFRYY
TAF AMD
KRYY 171153Z 1712/1812 32005KT P6SM BKN025
      TEMPO 1712/1714 BKN015
     FM171400 31009KT P6SM SCT025
     FM171600 31009KT P6SM SKC
     FM180000 31007KT P6SM SCT250=



000
FTUS42 KFFC 171120
TAFMCN
TAF
KMCN 171120Z 1712/1812 30006KT P6SM SKC
     FM171400 29009KT P6SM SKC
     FM180000 30003KT P6SM SCT250=



000
FTUS42 KFFC 171120
TAFAHN
TAF
KAHN 171120Z 1712/1812 28003KT P6SM SKC
     FM171400 29009KT P6SM SKC
     FM180000 29003KT P6SM SCT250=



000
FTUS42 KFFC 171120
TAFFTY
TAF
KFTY 171120Z 1712/1812 31005KT P6SM SKC
     FM171400 31009KT P6SM SKC
     FM180000 31007KT P6SM SCT250=



000
FTUS42 KFFC 171120
TAFRYY
TAF
KRYY 171120Z 1712/1812 32005KT P6SM SCT025
     FM171400 31009KT P6SM SKC
     FM180000 31007KT P6SM SCT250=



000
FTUS42 KFFC 171120
TAFATL
TAF
KATL 171120Z 1712/1818 30007KT P6SM SKC
     FM171400 31011KT P6SM SKC
     FM180000 31007KT P6SM SCT250
     FM181400 33006KT P6SM BKN080=



000
FTUS42 KFFC 171120
TAFPDK
TAF
KPDK 171120Z 1712/1812 30005KT P6SM SKC
     FM171400 31009KT P6SM SKC
     FM180000 31007KT P6SM SCT250=



000
FTUS42 KFFC 171120
TAFCSG
TAF
KCSG 171120Z 1712/1812 34003KT P6SM SKC
     FM171400 35006KT P6SM SKC
     FM180000 33003KT P6SM SKC
     FM180600 33003KT P6SM SCT250=



000
FTUS42 KFFC 171006 AAB
TAFATL
TAF AMD
KATL 171006Z 1710/1812 30007KT P6SM SKC
     FM171400 31011KT P6SM SKC
     FM180000 31007KT P6SM SCT250=



000
FTUS42 KFFC 171006 AAB
TAFATL
TAF AMD
KATL 171006Z 1710/1812 30007KT P6SM SKC
     FM171400 31011KT P6SM SKC
     FM180000 31007KT P6SM SCT250=



000
FTUS42 KFFC 170806 AAA
TAFATL
TAF AMD
KATL 170806Z 1708/1812 32008KT P6SM FEW030
     FM170900 31007KT P6SM SCT025
     FM171400 31011KT P6SM SKC
     FM180000 31007KT P6SM SCT250=



000
FTUS42 KFFC 170806 AAA
TAFATL
TAF AMD
KATL 170806Z 1708/1812 32008KT P6SM FEW030
     FM170900 31007KT P6SM SCT025
     FM171400 31011KT P6SM SKC
     FM180000 31007KT P6SM SCT250=



000
FTUS42 KFFC 170521
TAFFTY
TAF
KFTY 170521Z 1706/1806 30006KT P6SM FEW040
     FM170900 31005KT P6SM SCT025
     FM171400 31009KT P6SM SKC
     FM180000 31007KT P6SM SCT250=



000
FTUS42 KFFC 170521
TAFMCN
TAF
KMCN 170521Z 1706/1806 30006KT P6SM SKC
     FM171400 29009KT P6SM SKC
     FM180000 30003KT P6SM SKC=



000
FTUS42 KFFC 170521
TAFATL
TAF
KATL 170521Z 1706/1812 31008KT P6SM FEW030
     FM170900 31007KT P6SM SCT025
     FM171400 31011KT P6SM SKC
     FM180000 31007KT P6SM SCT250=



000
FTUS42 KFFC 170521
TAFAHN
TAF
KAHN 170521Z 1706/1806 28005KT P6SM SKC
     FM171400 29009KT P6SM SKC
     FM180000 31007KT P6SM FEW250=



000
FTUS42 KFFC 170521
TAFRYY
TAF
KRYY 170521Z 1706/1806 32005KT P6SM SCT025
     FM171400 31009KT P6SM SKC
     FM180000 31007KT P6SM SCT250=



000
FTUS42 KFFC 170521
TAFPDK
TAF
KPDK 170521Z 1706/1806 28006KT P6SM FEW040
     FM170900 31005KT P6SM SCT025
     FM171400 31009KT P6SM SKC
     FM180000 31007KT P6SM SCT250=



000
FTUS42 KFFC 170521
TAFCSG
TAF
KCSG 170521Z 1706/1806 34004KT P6SM SKC
     FM171400 34006KT P6SM SKC
     FM180000 34003KT P6SM SKC=



000
FTUS42 KFFC 170336 AAB
TAFATL
TAF AMD
KATL 170336Z 1704/1806 30008KT P6SM FEW030
     FM170900 31007KT P6SM SCT025
     FM171400 31011KT P6SM SKC=



000
FTUS42 KFFC 170336 AAB
TAFATL
TAF AMD
KATL 170336Z 1704/1806 30008KT P6SM FEW030
     FM170900 31007KT P6SM SCT025
     FM171400 31011KT P6SM SKC=



000
FTUS42 KFFC 170137 AAA
TAFATL
TAF AMD
KATL 170137Z 1702/1806 31009KT P6SM FEW040
     FM170900 31007KT P6SM SCT025
     FM171400 31011KT P6SM SKC=



000
FTUS42 KFFC 162321
TAFFTY
TAF
KFTY 162321Z 1700/1724 30008KT P6SM FEW040
     FM170900 31005KT P6SM SCT025
     FM171400 31009KT P6SM SKC=



000
FTUS42 KFFC 162321
TAFATL
TAF
KATL 162321Z 1700/1806 30010KT P6SM FEW040
     FM170900 31007KT P6SM SCT025
     FM171400 31011KT P6SM SKC=



000
FTUS42 KFFC 162321
TAFPDK
TAF
KPDK 162321Z 1700/1724 30008KT P6SM FEW040
     FM170900 31005KT P6SM SCT025
     FM171400 31009KT P6SM SKC=



000
FTUS42 KFFC 162321
TAFAHN
TAF
KAHN 162321Z 1700/1724 28008KT P6SM FEW040
     FM170900 29005KT P6SM SCT025
     FM171400 29009KT P6SM SKC=



000
FTUS42 KFFC 162321
TAFCSG
TAF
KCSG 162321Z 1700/1724 30006KT P6SM SKC
     FM171400 31009KT P6SM SKC=



000
FTUS42 KFFC 162321
TAFRYY
TAF
KRYY 162321Z 1700/1724 30008KT P6SM FEW040
     FM170900 31005KT P6SM SCT025
     FM171400 31009KT P6SM SKC=



000
FTUS42 KFFC 162321
TAFMCN
TAF
KMCN 162321Z 1700/1724 29006KT P6SM SKC
     FM171400 29009KT P6SM SKC=



000
FTUS42 KFFC 162320
TAFATL
TAF
KATL 162320Z 1700/1806 29012KT P6SM FEW045
     FM170000 30009KT P6SM SCT100
     FM170900 31005KT P6SM SCT025
     FM171400 31008KT P6SM SKC=



000
FTUS42 KFFC 162212 AAB
TAFATL
TAF AMD
KATL 162212Z 1622/1724 29013G20KT P6SM FEW045
     FM170000 30009KT P6SM SCT100
     FM170900 31005KT P6SM SCT025
     FM171400 31008KT P6SM SKC=



000
FTUS42 KFFC 161949 AAA
TAFATL
TAF AMD
KATL 161949Z 1620/1724 28015G20KT P6SM SCT045
     FM170000 30009KT P6SM SCT100
     FM170900 31005KT P6SM SCT025
     FM171400 31008KT P6SM SKC=



000
FTUS42 KFFC 161727
TAFFTY
TAF
KFTY 161727Z 1618/1718 28010G18KT P6SM SCT035
     FM170200 31005KT P6SM FEW250
     FM171400 31007KT P6SM SKC=



000
FTUS42 KFFC 161727
TAFRYY
TAF
KRYY 161727Z 1618/1718 28010G18KT P6SM SCT035
     FM170200 31005KT P6SM FEW250
     FM171400 31007KT P6SM SKC=



000
FTUS42 KFFC 161727
TAFATL
TAF
KATL 161727Z 1618/1724 28015G20KT P6SM SCT035
     FM170000 30009KT P6SM SCT100
     FM170900 31005KT P6SM SCT025
     FM171400 31008KT P6SM SKC=



000
FTUS42 KFFC 161727
TAFPDK
TAF
KPDK 161727Z 1618/1718 28010G18KT P6SM SCT035
     FM170200 31005KT P6SM FEW250
     FM171400 31007KT P6SM SKC=



000
FTUS42 KFFC 161727
TAFMCN
TAF
KMCN 161727Z 1618/1718 27010G18KT P6SM FEW030
     FM170000 30009KT P6SM FEW250
     FM170400 30005KT P6SM SKC=



000
FTUS42 KFFC 161727
TAFAHN
TAF
KAHN 161727Z 1618/1718 28010KT P6SM FEW030
     FM170200 29007KT P6SM FEW250
     FM171100 29003KT P6SM BKN250=



000
FTUS42 KFFC 161727
TAFCSG
TAF
KCSG 161727Z 1618/1718 28010G18KT P6SM SKC
     FM170000 31006KT P6SM SKC=



000
FTUS42 KFFC 161545 AAB
TAFATL
TAF AMD
KATL 161545Z 1616/1718 27015G20KT P6SM SCT025 BKN045
     FM161800 28015G20KT P6SM FEW250
     FM170200 31010KT P6SM BKN050
     FM170600 31007KT P6SM BKN025
     FM171300 32009KT P6SM SCT050=



000
FTUS42 KFFC 161545 AAB
TAFATL
TAF AMD
KATL 161545Z 1616/1718 27015G20KT P6SM SCT025 BKN045
     FM161800 28015G20KT P6SM FEW250
     FM170200 31010KT P6SM BKN050
     FM170600 31007KT P6SM BKN025
     FM171300 32009KT P6SM SCT050=



000
FTUS42 KFFC 161542 AAB
TAFPDK
TAF AMD
KPDK 161542Z 1616/1712 28010G18KT P6SM FEW250
     FM170200 31008KT P6SM BKN050
     FM170600 31006KT P6SM BKN025=



000
FTUS42 KFFC 161542 AAB
TAFFTY
TAF AMD
KFTY 161542Z 1616/1712 28010G18KT P6SM FEW250
     FM170200 31008KT P6SM BKN050
     FM170600 31006KT P6SM BKN025=



000
FTUS42 KFFC 161542 AAA
TAFRYY
TAF AMD
KRYY 161542Z 1616/1712 27010G18KT P6SM FEW250
     FM170200 31009KT P6SM BKN050
     FM170600 31006KT P6SM BKN025=



000
FTUS42 KFFC 161351 AAA
TAFFTY
TAF AMD
KFTY 161351Z 1614/1712 26008KT P6SM BKN045
     FM161800 28010G18KT P6SM FEW250
     FM170200 31008KT P6SM BKN050
     FM170600 31006KT P6SM BKN025=



000
FTUS42 KFFC 161351 AAA
TAFATL
TAF AMD
KATL 161351Z 1614/1718 27010KT P6SM SCT025 BKN045
     FM161800 28015G20KT P6SM FEW250
     FM170200 31010KT P6SM BKN050
     FM170600 31007KT P6SM BKN025
     FM171300 32009KT P6SM SCT050=



000
FTUS42 KFFC 161351 AAA
TAFPDK
TAF AMD
KPDK 161351Z 1614/1712 23008KT P6SM OVC025
     FM161500 26008KT P6SM BKN045
     FM161800 28010G18KT P6SM FEW250
     FM170200 31008KT P6SM BKN050
     FM170600 31006KT P6SM BKN025=



000
FTUS42 KFFC 161300 AAA
TAFAHN
TAF AMD
KAHN 161300Z 1613/1712 19005KT 5SM -SHRA BR OVC020
      TEMPO 1613/1615 2SM -SHRA BR OVC009
     FM161500 25007KT P6SM BKN025
     FM161700 27010G18KT P6SM BKN050
     FM170200 31009KT P6SM FEW250
     FM170600 31006KT P6SM BKN025=



000
FTUS42 KFFC 161127
TAFAHN
TAF
KAHN 161127Z 1612/1712 19005KT 5SM -SHRA BR OVC020
     FM161500 25007KT P6SM BKN025
     FM161700 27010G18KT P6SM BKN050
     FM170200 31009KT P6SM FEW250
     FM170600 31006KT P6SM BKN025=



000
FTUS42 KFFC 161127
TAFFTY
TAF
KFTY 161127Z 1612/1712 23008KT P6SM OVC015
     FM161500 26008KT P6SM BKN045
     FM161800 28010G18KT P6SM FEW250
     FM170200 31008KT P6SM BKN050
     FM170600 31006KT P6SM BKN025=



000
FTUS42 KFFC 161127
TAFCSG
TAF
KCSG 161127Z 1612/1712 22008KT 5SM -SHRA BR OVC010
     FM161300 26008KT 5SM BR OVC015
     FM161500 28010G18KT P6SM BKN080
     FM170200 31009KT P6SM FEW250
     FM170600 31006KT P6SM BKN025=



000
FTUS42 KFFC 161127
TAFATL
TAF
KATL 161127Z 1612/1718 23010KT P6SM OVC015
     FM161500 26010KT P6SM BKN045
     FM161800 28015G20KT P6SM FEW250
     FM170200 31010KT P6SM BKN050
     FM170600 31007KT P6SM BKN025
     FM171300 32009KT P6SM SCT050=



000
FTUS42 KFFC 161127
TAFMCN
TAF
KMCN 161127Z 1612/1712 21010G18KT P6SM OVC045
      TEMPO 1613/1615 5SM -SHRA BKN025
     FM161700 25010G18KT P6SM BKN060
     FM170200 31009KT P6SM FEW250
     FM170600 31006KT P6SM BKN025=



000
FTUS42 KFFC 161127
TAFRYY
TAF
KRYY 161127Z 1612/1712 22005KT P6SM OVC040
     FM161600 26008KT P6SM SCT045
     FM161800 27010G18KT P6SM FEW250
     FM170200 31009KT P6SM BKN050
     FM170600 31006KT P6SM BKN025=



000
FTUS42 KFFC 161127
TAFPDK
TAF
KPDK 161127Z 1612/1712 23008KT P6SM OVC010
     FM161500 26008KT P6SM BKN045
     FM161800 28010G18KT P6SM FEW250
     FM170200 31008KT P6SM BKN050
     FM170600 31006KT P6SM BKN025=



000
FTUS42 KFFC 160958 AAA
TAFPDK
TAF AMD
KPDK 160958Z 1610/1706 20005KT 5SM -SHRA BR BKN009 OVC015
     FM161300 22005KT P6SM OVC015
     FM161600 26008KT P6SM BKN045
     FM161800 27010G18KT P6SM FEW250
     FM170200 31009KT P6SM BKN050=



000
FTUS42 KFFC 160957 AAA
TAFFTY
TAF AMD
KFTY 160957Z 1610/1706 22005KT 6SM -SHRA BR BKN009 OVC015
     FM161300 22005KT P6SM OVC015
     FM161600 26008KT P6SM BKN045
     FM161800 27010G18KT P6SM FEW250
     FM170200 31009KT P6SM BKN050=



000
FTUS42 KFFC 160957 AAB
TAFATL
TAF AMD
KATL 160957Z 1610/1712 22008G18KT 6SM -SHRA BR BKN009 OVC015
     FM161200 23010KT P6SM OVC015
     FM161600 26010KT P6SM BKN045
     FM161800 28015G20KT P6SM FEW250
     FM170200 31010KT P6SM BKN050
     FM170600 31007KT P6SM OVC025=



000
FTUS42 KFFC 160956 AAA
TAFCSG
TAF AMD
KCSG 160956Z 1610/1706 21007KT P6SM OVC012
     FM161100 22008KT 5SM -SHRA BR OVC010
     FM161300 26008KT 5SM BR OVC015
     FM161500 28010G18KT P6SM BKN080
     FM170200 31009KT P6SM FEW250=



000
FTUS42 KFFC 160955 AAA
TAFMCN
TAF AMD
KMCN 160955Z 1610/1706 22005KT P6SM BKN030 OVC080
     FM161100 22005KT P6SM OVC025
     FM161700 25010G18KT P6SM BKN060
     FM170200 31009KT P6SM FEW250=



000
FTUS42 KFFC 160955 AAA
TAFMCN
TAF AMD
KMCN 160955Z 1610/1706 22005KT P6SM BKN030 OVC080
     FM161100 22005KT P6SM OVC025
     FM161700 25010G18KT P6SM BKN060
     FM170200 31009KT P6SM FEW250=



000
FTUS42 KFFC 160954 AAA
TAFAHN
TAF AMD
KAHN 160954Z 1610/1706 18004KT P6SM OVC017
     FM161100 18004KT 5SM -SHRA BR OVC015
     FM161200 19005KT P6SM OVC015
     FM161600 25007KT P6SM BKN025
     FM161700 27010G18KT P6SM BKN050
     FM170200 31009KT P6SM FEW250=



000
FTUS42 KFFC 160954 AAA
TAFAHN
TAF AMD
KAHN 160954Z 1610/1706 18004KT P6SM OVC017
     FM161100 18004KT 5SM -SHRA BR OVC015
     FM161200 19005KT P6SM OVC015
     FM161600 25007KT P6SM BKN025
     FM161700 27010G18KT P6SM BKN050
     FM170200 31009KT P6SM FEW250=



000
FTUS42 KFFC 160838 AAA
TAFATL
TAF AMD
KATL 160838Z 1609/1712 20008KT 6SM -SHRA BKN018 BKN040
     FM161100 21006KT 5SM -SHRA BR BKN009 OVC015
     FM161300 22007KT P6SM OVC015
     FM161600 26010KT P6SM BKN045
     FM161800 28015G20KT P6SM FEW250
     FM170200 31010KT P6SM BKN050
     FM170600 31007KT P6SM OVC025=



000
FTUS42 KFFC 160528
TAFAHN
TAF
KAHN 160528Z 1606/1706 00000KT P6SM OVC035
     FM161100 18004KT 5SM -SHRA BR BKN025
     FM161200 19005KT P6SM OVC015
     FM161600 25007KT P6SM BKN025
     FM161700 27010G18KT P6SM BKN050
     FM170200 31009KT P6SM FEW250=



000
FTUS42 KFFC 160528
TAFMCN
TAF
KMCN 160528Z 1606/1706 00000KT P6SM SCT080 SCT250
     FM160800 19004KT P6SM BKN060
     FM161100 20005KT P6SM OVC025
     FM161700 25010G18KT P6SM BKN060
     FM170200 31009KT P6SM FEW250=



000
FTUS42 KFFC 160528
TAFFTY
TAF
KFTY 160528Z 1606/1706 19004KT P6SM -SHRA SCT035 BKN050
     FM160700 19004KT 6SM BR BKN025
     FM161100 21005KT 5SM -SHRA BR BKN009 OVC015
     FM161300 22005KT P6SM OVC015
     FM161600 26008KT P6SM BKN045
     FM161800 27010G18KT P6SM FEW250
     FM170200 31009KT P6SM BKN050=



000
FTUS42 KFFC 160528
TAFPDK
TAF
KPDK 160528Z 1606/1706 18004KT P6SM -SHRA SCT035 BKN050
     FM160700 19004KT 6SM BR BKN025
     FM161100 21005KT 5SM -SHRA BR BKN009 OVC015
     FM161300 22005KT P6SM OVC015
     FM161600 26008KT P6SM BKN045
     FM161800 27010G18KT P6SM FEW250
     FM170200 31009KT P6SM BKN050=



000
FTUS42 KFFC 160528
TAFRYY
TAF
KRYY 160528Z 1606/1706 18004KT P6SM -SHRA BKN035 BKN050
     FM160700 19004KT 6SM BR BKN025
     FM161100 21005KT 5SM -SHRA BR BKN009 OVC015
     FM161300 22005KT P6SM OVC015
     FM161600 26008KT P6SM BKN045
     FM161800 27010G18KT P6SM FEW250
     FM170200 31009KT P6SM BKN050=



000
FTUS42 KFFC 160528
TAFCSG
TAF
KCSG 160528Z 1606/1706 00000KT P6SM BKN025
     FM160800 20005KT P6SM BKN025
     FM161000 21005KT P6SM BKN012
     FM161500 28010G18KT P6SM BKN080
     FM170200 31009KT P6SM FEW250=



000
FTUS42 KFFC 160528
TAFATL
TAF
KATL 160528Z 1606/1712 17004KT P6SM -SHRA BKN050
     FM160700 19006KT 6SM BR BKN025
     FM161100 21006KT 5SM -SHRA BR BKN009 OVC015
     FM161300 22007KT P6SM OVC015
     FM161600 26010KT P6SM BKN045
     FM161800 28015G20KT P6SM FEW250
     FM170200 31010KT P6SM BKN050
     FM170600 31007KT P6SM OVC025=



000
FTUS42 KFFC 160348 AAB
TAFATL
TAF AMD
KATL 160348Z 1604/1706 17004KT P6SM BKN050
     FM160700 19006KT 6SM -SHRA BKN025
     FM161100 21006KT 5SM -SHRA BR BKN009 OVC015
     FM161300 22007KT P6SM OVC015
     FM161600 26010KT P6SM BKN045
     FM161800 27015G20KT P6SM FEW250
     FM170200 31009KT P6SM FEW250=



000
FTUS42 KFFC 160348 AAB
TAFATL
TAF AMD
KATL 160348Z 1604/1706 17004KT P6SM BKN050
     FM160700 19006KT 6SM -SHRA BKN025
     FM161100 21006KT 5SM -SHRA BR BKN009 OVC015
     FM161300 22007KT P6SM OVC015
     FM161600 26010KT P6SM BKN045
     FM161800 27015G20KT P6SM FEW250
     FM170200 31009KT P6SM FEW250=



000
FTUS42 KFFC 160156 AAA
TAFATL
TAF AMD
KATL 160156Z 1602/1706 17004KT P6SM BKN050
     FM160700 19006KT 6SM -SHRA BKN025
     FM161100 21006KT 5SM -SHRA BR BKN009 OVC015
     FM161300 22007KT P6SM OVC015
     FM161600 26010KT P6SM BKN045
     FM161800 27015G20KT P6SM FEW250
     FM170200 31009KT P6SM FEW250=



000
FTUS42 KFFC 152322
TAFMCN
TAF
KMCN 152322Z 1600/1624 00000KT P6SM SCT250
     FM160800 19004KT P6SM BKN060
     FM161100 20005KT P6SM OVC025
     FM161700 25010KT P6SM BKN060=



000
FTUS42 KFFC 152322
TAFAHN
TAF
KAHN 152322Z 1600/1624 00000KT P6SM BKN150
     FM160500 00000KT P6SM BKN050
     FM161100 18004KT 5SM -SHRA BR BKN025
     FM161200 19005KT P6SM OVC015
     FM161600 25007KT P6SM BKN025
     FM161700 26008KT P6SM BKN050=



000
FTUS42 KFFC 152322
TAFFTY
TAF
KFTY 152322Z 1600/1624 00000KT P6SM BKN150
     FM160400 17004KT P6SM BKN050
     FM160700 19004KT 6SM -SHRA BKN025
     FM161100 21005KT 5SM -SHRA BR BKN009 OVC015
     FM161300 22005KT P6SM OVC015
     FM161600 26008KT P6SM BKN045
     FM161800 27010KT P6SM FEW250=



000
FTUS42 KFFC 152322
TAFCSG
TAF
KCSG 152322Z 1600/1624 00000KT P6SM SKC
     FM160500 00000KT P6SM BKN060
     FM160800 20005KT P6SM BKN025
     FM161000 21005KT P6SM BKN012
     FM161500 26010KT P6SM BKN080=



000
FTUS42 KFFC 152322
TAFRYY
TAF
KRYY 152322Z 1600/1624 00000KT P6SM BKN150
     FM160400 17004KT P6SM BKN050
     FM160700 19004KT 6SM -SHRA BKN025
     FM161100 21005KT 5SM -SHRA BR BKN009 OVC015
     FM161300 22005KT P6SM OVC015
     FM161600 26008KT P6SM BKN045
     FM161800 27010KT P6SM FEW250=



000
FTUS42 KFFC 152322
TAFATL
TAF
KATL 152322Z 1600/1706 19004KT P6SM BKN150
     FM160400 17004KT P6SM BKN050
     FM160700 19006KT 6SM -SHRA BKN025
     FM161100 21006KT 5SM -SHRA BR BKN009 OVC015
     FM161300 22007KT P6SM OVC015
     FM161600 26010KT P6SM BKN045
     FM161800 27015G20KT P6SM FEW250
     FM170200 31009KT P6SM FEW250=



000
FTUS42 KFFC 152322
TAFPDK
TAF
KPDK 152322Z 1600/1624 00000KT P6SM BKN150
     FM160400 17004KT P6SM BKN050
     FM160700 19004KT 6SM -SHRA BKN025
     FM161100 21005KT 5SM -SHRA BR BKN009 OVC015
     FM161300 22005KT P6SM OVC015
     FM161600 26008KT P6SM BKN045
     FM161800 27010KT P6SM FEW250=



000
FTUS42 KFFC 152150 AAB
TAFATL
TAF AMD
KATL 152150Z 1522/1624 23004KT P6SM BKN150
     FM160400 19004KT P6SM BKN050
     FM160600 19006KT 5SM -RA BKN025
     FM161200 21007KT P6SM OVC015
     FM161500 26010KT P6SM SCT025
     FM161800 27015KT P6SM FEW250=



000
FTUS42 KFFC 152150 AAB
TAFATL
TAF AMD
KATL 152150Z 1522/1624 23004KT P6SM BKN150
     FM160400 19004KT P6SM BKN050
     FM160600 19006KT 5SM -RA BKN025
     FM161200 21007KT P6SM OVC015
     FM161500 26010KT P6SM SCT025
     FM161800 27015KT P6SM FEW250=



000
FTUS42 KFFC 151930 AAA
TAFATL
TAF AMD
KATL 151930Z 1520/1624 30006KT P6SM SCT250
     FM152200 19004KT P6SM BKN150
     FM160400 19004KT P6SM BKN050
     FM160600 19006KT 5SM -RA BKN025
     FM161200 21007KT P6SM OVC015
     FM161500 26010KT P6SM SCT025
     FM161800 27015KT P6SM FEW250=



000
FTUS42 KFFC 151740
TAFFTY
TAF
KFTY 151740Z 1518/1618 31004KT P6SM SCT250
     FM152200 19004KT P6SM BKN150
     FM160400 19004KT P6SM BKN050
     FM160600 19006KT 5SM -RA BKN025
     FM161200 21007KT P6SM OVC015
     FM161500 26010KT P6SM SCT025
     FM161700 27015KT P6SM FEW250=



000
FTUS42 KFFC 151740
TAFRYY
TAF
KRYY 151740Z 1518/1618 31004KT P6SM BKN200
     FM152200 19004KT P6SM BKN150
     FM160400 19004KT P6SM BKN050
     FM160600 19006KT 5SM -RA BKN025
     FM161200 21007KT P6SM OVC015
     FM161500 26010KT P6SM SCT025
     FM161700 27015KT P6SM FEW250=



000
FTUS42 KFFC 151740
TAFPDK
TAF
KPDK 151740Z 1518/1618 31004KT P6SM SCT250
     FM152200 19004KT P6SM BKN150
     FM160400 19004KT P6SM BKN050
     FM160600 19006KT 5SM -RA BKN025
     FM161200 21007KT P6SM OVC015
     FM161500 26010KT P6SM SCT025
     FM161700 27015KT P6SM FEW250=



000
FTUS42 KFFC 151740
TAFATL
TAF
KATL 151740Z 1518/1624 31006KT P6SM SCT250
     FM152200 19004KT P6SM BKN150
     FM160400 19004KT P6SM BKN050
     FM160600 19006KT 5SM -RA BKN025
     FM161200 21007KT P6SM OVC015
     FM161500 26010KT P6SM SCT025
     FM161800 27015KT P6SM FEW250=



000
FTUS42 KFFC 151740
TAFCSG
TAF
KCSG 151740Z 1518/1618 00000KT P6SM SKC
     FM160400 17004KT P6SM BKN060
     FM160700 20005KT P6SM BKN030
     FM161500 26010KT P6SM SCT060=



000
FTUS42 KFFC 151740
TAFMCN
TAF
KMCN 151740Z 1518/1618 24004KT P6SM SKC
     FM152200 19004KT P6SM SCT250
     FM161000 19004KT P6SM BKN060
     FM161500 26010KT P6SM SCT060=



000
FTUS42 KFFC 151740
TAFAHN
TAF
KAHN 151740Z 1518/1618 31003KT P6SM SCT250
     FM152200 19004KT P6SM BKN150
     FM160400 19004KT P6SM BKN050
     FM160600 19006KT 5SM -RA BKN025
     FM161200 21007KT P6SM OVC015
     FM161500 26010KT P6SM SCT025
     FM161700 27015KT P6SM FEW250=



000
FTUS42 KFFC 151554 AAB
TAFFTY
TAF AMD
KFTY 151554Z 1516/1612 27006KT 6SM BR SCT250
     FM152200 19004KT P6SM SCT250
     FM160000 16004KT P6SM BKN250
     FM160400 16004KT P6SM BKN050
     FM160600 19006KT 5SM -RA BKN025=



000
FTUS42 KFFC 151534 AAC
TAFATL
TAF AMD
KATL 151534Z 1516/1618 30006KT P6SM BKN250
     FM152200 19004KT P6SM SCT250
     FM160000 16004KT P6SM BKN250
     FM160400 19004KT P6SM BKN050
     FM160600 19006KT 5SM -RA BKN025
     FM161200 21007KT P6SM OVC015
     FM161500 26010KT P6SM SCT025=



000
FTUS42 KFFC 151351 AAB
TAFRYY
TAF AMD
KRYY 151351Z 1514/1612 30006KT P6SM SCT250
      TEMPO 1514/1515 1/2SM FG OVC002
     FM152200 19004KT P6SM SCT250
     FM160000 16004KT P6SM BKN250
     FM160400 16004KT P6SM BKN050
     FM160600 19006KT 5SM -RA BKN025=



000
FTUS42 KFFC 151350 AAB
TAFATL
TAF AMD
KATL 151350Z 1514/1618 29006KT 6SM BR FEW150 SCT200
     FM152200 19004KT P6SM SCT250
     FM160000 16004KT P6SM BKN250
     FM160400 19004KT P6SM BKN050
     FM160600 19006KT 5SM -RA BKN025
     FM161200 21007KT P6SM OVC015
     FM161500 26010KT P6SM SCT025=



000
FTUS42 KFFC 151240 AAA
TAFFTY
TAF AMD
KFTY 151240Z 1513/1612 27006KT P6SM SCT250
      TEMPO 1513/1514 6SM BR BKN005
     FM152200 19004KT P6SM SCT250
     FM160000 16004KT P6SM BKN250
     FM160400 16004KT P6SM BKN050
     FM160600 19006KT 5SM -RA BKN025=



000
FTUS42 KFFC 151204 AAA
TAFRYY
TAF AMD
KRYY 151204Z 1512/1612 30006KT P6SM SCT250
      TEMPO 1512/1514 3/4SM BR OVC002
     FM152200 19004KT P6SM SCT250
     FM160000 16004KT P6SM BKN250
     FM160400 16004KT P6SM BKN050
     FM160600 19006KT 5SM -RA BKN025=



000
FTUS42 KFFC 151155 AAA
TAFATL
TAF AMD
KATL 151155Z 1512/1618 29006KT P6SM SCT250
      TEMPO 1512/1514 5SM BR
     FM152200 19004KT P6SM SCT250
     FM160000 16004KT P6SM BKN250
     FM160400 19004KT P6SM BKN050
     FM160600 19006KT 5SM -RA BKN025
     FM161200 21007KT P6SM OVC015
     FM161500 26010KT P6SM SCT025=



000
FTUS42 KFFC 151132
TAFRYY
TAF
KRYY 151132Z 1512/1612 27006KT P6SM SCT250
      TEMPO 1512/1514 4SM BR
     FM152200 19004KT P6SM SCT250
     FM160000 16004KT P6SM BKN250
     FM160400 16004KT P6SM BKN050
     FM160600 19006KT 5SM -RA BKN025=



000
FTUS42 KFFC 151132
TAFATL
TAF
KATL 151132Z 1512/1618 31006KT P6SM SCT250
     FM152200 19004KT P6SM SCT250
     FM160000 16004KT P6SM BKN250
     FM160400 19004KT P6SM BKN050
     FM160600 19006KT 5SM -RA BKN025
     FM161200 21007KT P6SM OVC015
     FM161500 26009KT P6SM SCT025=



000
FTUS42 KFFC 151132
TAFAHN
TAF
KAHN 151132Z 1512/1612 24004KT P6SM SKC
      TEMPO 1512/1514 5SM BR
     FM152200 19004KT P6SM SCT250
     FM160000 16004KT P6SM BKN250
     FM160400 16004KT P6SM BKN050
     FM160700 18003KT 5SM -RA BKN025=



000
FTUS42 KFFC 151132
TAFCSG
TAF
KCSG 151132Z 1512/1612 00000KT P6SM SKC
     FM160400 17004KT P6SM BKN060
     FM160700 20005KT P6SM BKN030=



000
FTUS42 KFFC 151132
TAFFTY
TAF
KFTY 151132Z 1512/1612 27006KT P6SM SCT250
      TEMPO 1512/1514 6SM BR
     FM152200 19004KT P6SM SCT250
     FM160000 16004KT P6SM BKN250
     FM160400 16004KT P6SM BKN050
     FM160600 19006KT 5SM -RA BKN025=



000
FTUS42 KFFC 151132
TAFMCN
TAF
KMCN 151132Z 1512/1612 24004KT P6SM SKC
      TEMPO 1512/1514 6SM BR
     FM152200 19004KT P6SM SCT250
     FM161000 19004KT P6SM BKN060=



000
FTUS42 KFFC 151132
TAFPDK
TAF
KPDK 151132Z 1512/1612 27006KT P6SM SCT250
      TEMPO 1512/1514 4SM BR
     FM152200 19004KT P6SM SCT250
     FM160000 16004KT P6SM BKN250
     FM160400 16004KT P6SM BKN050
     FM160600 19006KT 5SM -RA BKN025=



    US Dept of Commerce
    National Oceanic and Atmospheric Administration
    National Weather Service
    1325 East West Highway
    Silver Spring, MD 20910
    Page Author: NWS Internet Services Team
Disclaimer
Information Quality
Credits
Glossary
Privacy Policy
Freedom of Information Act (FOIA)
About Us
Career Opportunities